createdAt,value
2023-06-30T00:00:14.701Z,19.71
2023-06-30T00:02:43.084Z,19.72
2023-06-30T00:05:11.120Z,19.69
2023-06-30T00:07:38.483Z,19.68
2023-06-30T00:10:07.344Z,19.65
2023-06-30T00:12:34.700Z,19.60
2023-06-30T00:15:02.130Z,19.57
2023-06-30T00:17:28.874Z,19.51
2023-06-30T00:19:59.029Z,19.51
2023-06-30T00:22:26.566Z,19.48
2023-06-30T00:24:57.291Z,19.48
2023-06-30T00:27:25.766Z,19.47
2023-06-30T00:29:52.544Z,19.44
2023-06-30T00:32:19.395Z,19.35
2023-06-30T00:34:46.144Z,19.34
2023-06-30T00:37:12.809Z,19.28
2023-06-30T00:39:39.415Z,19.27
2023-06-30T00:42:06.374Z,19.26
2023-06-30T00:44:33.031Z,19.24
2023-06-30T00:47:03.112Z,19.22
2023-06-30T00:49:29.979Z,19.18
2023-06-30T00:51:56.898Z,19.15
2023-06-30T00:54:23.670Z,19.14
2023-06-30T00:56:50.342Z,19.13
2023-06-30T00:59:17.075Z,19.11
2023-06-30T01:02:19.638Z,19.07
2023-06-30T01:05:07.426Z,19.04
2023-06-30T01:07:53.600Z,19.04
2023-06-30T01:10:25.952Z,19.01
2023-06-30T01:12:53.573Z,18.98
2023-06-30T01:15:21.400Z,18.94
2023-06-30T01:18:01.903Z,18.90
2023-06-30T01:20:34.370Z,18.85
2023-06-30T01:23:03.945Z,18.85
2023-06-30T01:25:31.147Z,18.83
2023-06-30T01:27:59.600Z,18.83
2023-06-30T01:30:30.781Z,18.84
2023-06-30T01:32:59.696Z,18.84
2023-06-30T01:35:28.735Z,18.80
2023-06-30T01:37:56.627Z,18.76
2023-06-30T01:40:24.002Z,18.73
2023-06-30T01:42:58.628Z,18.70
2023-06-30T01:45:27.863Z,18.69
2023-06-30T01:47:55.866Z,18.67
2023-06-30T01:50:23.631Z,18.63
2023-06-30T01:52:51.000Z,18.62
2023-06-30T01:55:18.259Z,18.58
2023-06-30T01:57:45.040Z,18.56
2023-06-30T02:00:12.332Z,18.54
2023-06-30T02:02:39.047Z,18.53
2023-06-30T02:05:05.882Z,18.50
2023-06-30T02:07:33.935Z,18.48
2023-06-30T02:10:00.792Z,18.46
2023-06-30T02:12:27.546Z,18.46
2023-06-30T02:14:54.543Z,18.45
2023-06-30T02:17:29.287Z,18.44
2023-06-30T02:19:56.020Z,18.43
2023-06-30T02:22:22.651Z,18.39
2023-06-30T02:24:49.306Z,18.43
2023-06-30T02:27:17.966Z,18.32
2023-06-30T02:29:44.975Z,18.19
2023-06-30T02:32:11.634Z,18.23
2023-06-30T02:34:38.247Z,18.25
2023-06-30T02:37:05.246Z,18.24
2023-06-30T02:39:31.947Z,18.22
2023-06-30T02:41:58.633Z,18.20
2023-06-30T02:44:25.398Z,18.23
2023-06-30T02:46:52.529Z,18.23
2023-06-30T02:49:19.141Z,18.23
2023-06-30T02:51:45.902Z,18.24
2023-06-30T02:54:12.511Z,18.26
2023-06-30T02:56:39.302Z,18.25
2023-06-30T02:59:07.255Z,18.23
2023-06-30T03:01:34.004Z,18.26
2023-06-30T03:04:01.437Z,18.25
2023-06-30T03:06:28.107Z,18.23
2023-06-30T03:08:54.774Z,18.22
2023-06-30T03:11:21.422Z,18.17
2023-06-30T03:13:48.252Z,18.14
2023-06-30T03:16:14.903Z,18.10
2023-06-30T03:18:41.747Z,18.06
2023-06-30T03:21:08.356Z,18.01
2023-06-30T03:23:35.013Z,18.00
2023-06-30T03:26:02.651Z,17.96
2023-06-30T03:28:30.440Z,17.95
2023-06-30T03:30:57.947Z,17.97
2023-06-30T03:33:24.699Z,17.95
2023-06-30T03:35:51.983Z,17.93
2023-06-30T03:38:18.713Z,17.93
2023-06-30T03:40:45.493Z,17.90
2023-06-30T03:43:12.373Z,17.89
2023-06-30T03:45:39.632Z,17.86
2023-06-30T03:48:06.562Z,17.86
2023-06-30T03:50:33.220Z,17.83
2023-06-30T03:52:59.904Z,17.85
2023-06-30T03:55:26.885Z,17.82
2023-06-30T03:57:53.641Z,17.77
2023-06-30T04:00:23.421Z,17.76
2023-06-30T04:02:50.088Z,17.76
2023-06-30T04:05:22.632Z,17.72
2023-06-30T04:07:50.042Z,17.73
2023-06-30T04:10:16.784Z,17.74
2023-06-30T04:12:43.850Z,17.74
2023-06-30T04:15:11.962Z,17.73
2023-06-30T04:17:38.854Z,17.73
2023-06-30T04:20:10.802Z,17.69
2023-06-30T04:22:38.500Z,17.68
2023-06-30T04:25:07.622Z,17.71
2023-06-30T04:27:34.560Z,17.69
2023-06-30T04:30:01.439Z,17.68
2023-06-30T04:32:28.081Z,17.71
2023-06-30T04:34:54.864Z,17.60
2023-06-30T04:37:25.199Z,17.57
2023-06-30T04:39:52.023Z,17.64
2023-06-30T04:42:18.693Z,17.67
2023-06-30T04:44:45.385Z,17.70
2023-06-30T04:47:12.066Z,17.74
2023-06-30T04:49:38.774Z,17.80
2023-06-30T04:52:05.871Z,17.86
2023-06-30T04:54:35.367Z,17.88
2023-06-30T04:57:02.056Z,17.93
2023-06-30T04:59:28.843Z,17.96
2023-06-30T05:01:56.204Z,17.98
2023-06-30T05:04:23.036Z,18.03
2023-06-30T05:06:49.726Z,18.04
2023-06-30T05:09:17.212Z,18.07
2023-06-30T05:11:43.840Z,18.09
2023-06-30T05:14:10.454Z,18.10
2023-06-30T05:16:37.120Z,18.11
2023-06-30T05:19:04.368Z,18.13
2023-06-30T05:21:31.064Z,18.14
2023-06-30T05:23:57.947Z,18.18
2023-06-30T05:26:24.597Z,18.26
2023-06-30T05:29:03.594Z,18.32
2023-06-30T05:31:31.719Z,18.41
2023-06-30T05:33:58.408Z,18.45
2023-06-30T05:36:27.132Z,18.54
2023-06-30T05:38:53.786Z,18.58
2023-06-30T05:41:20.481Z,18.63
2023-06-30T05:43:47.191Z,18.59
2023-06-30T05:46:13.915Z,18.63
2023-06-30T05:48:40.569Z,18.55
2023-06-30T05:51:07.433Z,18.62
2023-06-30T05:53:34.085Z,18.68
2023-06-30T05:56:00.910Z,18.71
2023-06-30T05:58:27.619Z,18.72
2023-06-30T06:00:54.359Z,18.73
2023-06-30T06:03:21.257Z,18.77
2023-06-30T06:05:48.414Z,18.75
2023-06-30T06:08:15.506Z,18.76
2023-06-30T06:10:42.223Z,18.80
2023-06-30T06:13:09.583Z,18.80
2023-06-30T06:15:36.270Z,18.88
2023-06-30T06:18:03.048Z,18.92
2023-06-30T06:20:29.906Z,18.97
2023-06-30T06:22:56.700Z,19.00
2023-06-30T06:25:23.310Z,19.03
2023-06-30T06:27:49.893Z,19.02
2023-06-30T06:30:16.509Z,19.08
2023-06-30T06:32:43.269Z,19.08
2023-06-30T06:35:09.952Z,19.07
2023-06-30T06:37:37.179Z,19.03
2023-06-30T06:40:04.160Z,19.01
2023-06-30T06:42:30.772Z,18.99
2023-06-30T06:44:57.511Z,18.99
2023-06-30T06:48:01.697Z,18.98
2023-06-30T06:50:28.507Z,18.89
2023-06-30T06:52:55.366Z,18.85
2023-06-30T06:55:24.203Z,18.83
2023-06-30T06:57:50.884Z,18.84
2023-06-30T07:00:18.148Z,18.83
2023-06-30T07:02:44.955Z,18.83
2023-06-30T07:05:12.282Z,18.89
2023-06-30T07:07:39.299Z,18.89
2023-06-30T07:10:06.969Z,18.96
2023-06-30T07:12:33.756Z,19.02
2023-06-30T07:15:00.448Z,18.99
2023-06-30T07:17:27.647Z,19.03
2023-06-30T07:19:54.308Z,19.05
2023-06-30T07:22:22.632Z,19.07
2023-06-30T07:24:49.775Z,19.10
2023-06-30T07:27:16.359Z,19.13
2023-06-30T07:29:43.081Z,19.19
2023-06-30T07:32:09.803Z,19.34
2023-06-30T07:34:38.395Z,19.50
2023-06-30T07:37:06.194Z,19.52
2023-06-30T07:39:34.713Z,19.63
2023-06-30T07:42:01.684Z,19.68
2023-06-30T07:44:28.352Z,19.63
2023-06-30T07:46:55.057Z,19.53
2023-06-30T07:49:24.690Z,19.51
2023-06-30T07:51:51.982Z,19.39
2023-06-30T07:54:18.756Z,19.28
2023-06-30T07:56:47.139Z,19.30
2023-06-30T07:59:13.789Z,19.25
2023-06-30T08:01:40.401Z,19.38
2023-06-30T08:04:10.521Z,19.44
2023-06-30T08:06:37.479Z,19.51
2023-06-30T08:09:04.956Z,19.59
2023-06-30T08:11:32.062Z,19.47
2023-06-30T08:14:00.887Z,19.63
2023-06-30T08:16:27.634Z,19.70
2023-06-30T08:18:54.692Z,19.74
2023-06-30T08:21:23.520Z,19.85
2023-06-30T08:23:50.197Z,19.99
2023-06-30T08:26:17.371Z,19.81
2023-06-30T08:28:44.954Z,19.79
2023-06-30T08:31:11.725Z,19.76
2023-06-30T08:33:41.215Z,19.74
2023-06-30T08:36:08.301Z,19.72
2023-06-30T08:38:35.638Z,19.70
2023-06-30T08:41:04.777Z,19.69
2023-06-30T08:43:33.322Z,19.72
2023-06-30T08:46:03.279Z,19.73
2023-06-30T08:48:31.587Z,19.68
2023-06-30T08:51:01.992Z,19.46
2023-06-30T08:53:30.217Z,19.53
2023-06-30T08:55:59.265Z,19.46
2023-06-30T08:58:29.338Z,19.43
2023-06-30T09:00:59.047Z,19.40
2023-06-30T09:03:27.331Z,19.36
2023-06-30T09:05:56.925Z,19.45
2023-06-30T09:08:27.872Z,19.48
2023-06-30T09:10:56.128Z,19.45
2023-06-30T09:13:25.612Z,19.15
2023-06-30T09:15:56.785Z,19.10
2023-06-30T09:18:24.057Z,19.21
2023-06-30T09:20:51.091Z,19.27
2023-06-30T09:23:18.226Z,19.29
2023-06-30T09:25:45.341Z,19.28
2023-06-30T09:28:15.024Z,19.23
2023-06-30T09:30:45.709Z,19.35
2023-06-30T09:33:17.791Z,19.29
2023-06-30T09:35:47.969Z,19.21
2023-06-30T09:38:20.920Z,19.63
2023-06-30T09:40:50.081Z,20.79
2023-06-30T09:43:23.044Z,20.85
2023-06-30T09:46:03.161Z,20.56
2023-06-30T09:48:36.447Z,20.52
2023-06-30T09:51:05.996Z,21.49
2023-06-30T09:53:39.293Z,22.15
2023-06-30T09:56:08.667Z,22.31
2023-06-30T09:58:37.850Z,22.20
2023-06-30T10:01:04.591Z,22.18
2023-06-30T10:03:33.666Z,22.47
2023-06-30T10:06:01.700Z,23.10
2023-06-30T10:08:29.137Z,23.03
2023-06-30T10:10:58.068Z,22.91
2023-06-30T10:13:26.949Z,22.90
2023-06-30T10:15:53.731Z,22.78
2023-06-30T10:18:28.390Z,22.91
2023-06-30T10:20:55.149Z,22.46
2023-06-30T10:23:24.208Z,22.73
2023-06-30T10:25:51.951Z,22.51
2023-06-30T10:28:19.700Z,22.79
2023-06-30T10:30:48.042Z,22.75
2023-06-30T10:33:14.901Z,22.94
2023-06-30T10:35:42.775Z,22.96
2023-06-30T10:38:11.457Z,22.68
2023-06-30T10:40:38.117Z,22.74
2023-06-30T10:43:07.133Z,22.50
2023-06-30T10:46:10.435Z,22.60
2023-06-30T10:48:40.330Z,22.53
2023-06-30T10:51:09.227Z,22.43
2023-06-30T10:53:36.054Z,22.39
2023-06-30T10:56:03.883Z,22.32
2023-06-30T10:58:32.950Z,22.31
2023-06-30T11:01:07.182Z,22.39
2023-06-30T11:03:59.464Z,22.61
2023-06-30T11:06:27.457Z,23.09
2023-06-30T11:09:02.045Z,23.51
2023-06-30T11:11:29.144Z,23.65
2023-06-30T11:14:08.555Z,23.64
2023-06-30T11:17:03.222Z,23.18
2023-06-30T11:19:29.849Z,22.43
2023-06-30T11:22:21.860Z,22.40
2023-06-30T11:24:49.084Z,22.65
2023-06-30T11:27:16.811Z,22.40
2023-06-30T11:29:44.063Z,22.67
2023-06-30T11:32:11.039Z,22.61
2023-06-30T11:34:38.120Z,22.72
2023-06-30T11:37:08.209Z,22.85
2023-06-30T11:39:37.843Z,22.96
2023-06-30T11:42:04.591Z,22.79
2023-06-30T11:44:36.740Z,22.94
2023-06-30T11:47:03.732Z,23.02
2023-06-30T11:49:30.721Z,23.04
2023-06-30T11:51:57.433Z,23.26
2023-06-30T11:54:34.304Z,23.07
2023-06-30T11:57:01.550Z,23.12
2023-06-30T11:59:29.031Z,22.85
2023-06-30T12:01:55.689Z,23.36
2023-06-30T12:04:22.535Z,24.78
2023-06-30T12:06:50.262Z,25.55
2023-06-30T12:09:17.152Z,25.79
2023-06-30T12:11:45.896Z,25.47
2023-06-30T12:14:16.646Z,25.30
2023-06-30T12:16:44.302Z,25.14
2023-06-30T12:19:11.621Z,25.25
2023-06-30T12:21:52.102Z,25.46
2023-06-30T12:24:22.879Z,25.55
2023-06-30T12:26:50.936Z,25.98
2023-06-30T12:29:18.559Z,26.17
2023-06-30T12:31:49.075Z,25.64
2023-06-30T12:34:37.465Z,26.07
2023-06-30T12:37:04.742Z,26.29
2023-06-30T12:39:31.439Z,26.31
2023-06-30T12:41:58.146Z,26.41
2023-06-30T12:44:25.181Z,27.16
2023-06-30T12:47:09.422Z,28.04
2023-06-30T12:49:38.458Z,28.00
2023-06-30T12:52:05.733Z,28.41
2023-06-30T12:54:33.328Z,28.79
2023-06-30T12:57:00.061Z,28.66
2023-06-30T12:59:26.844Z,29.06
2023-06-30T13:01:54.024Z,29.03
2023-06-30T13:04:20.897Z,29.33
2023-06-30T13:06:47.585Z,29.30
2023-06-30T13:09:15.317Z,29.47
2023-06-30T13:11:42.737Z,29.41
2023-06-30T13:14:12.031Z,29.18
2023-06-30T13:16:40.462Z,29.21
2023-06-30T13:19:07.131Z,29.63
2023-06-30T13:21:33.835Z,29.31
2023-06-30T13:24:00.684Z,29.15
2023-06-30T13:26:27.297Z,28.95
2023-06-30T13:28:53.960Z,29.20
2023-06-30T13:31:20.618Z,29.34
2023-06-30T13:33:49.377Z,29.45
2023-06-30T13:36:16.023Z,28.50
2023-06-30T13:38:44.500Z,27.72
2023-06-30T13:41:11.265Z,27.44
2023-06-30T13:43:37.915Z,27.74
2023-06-30T13:46:05.654Z,28.07
2023-06-30T13:48:32.994Z,28.27
2023-06-30T13:50:59.910Z,28.41
2023-06-30T13:53:26.631Z,28.40
2023-06-30T13:55:53.755Z,28.76
2023-06-30T13:58:20.707Z,28.84
2023-06-30T14:00:48.178Z,29.18
2023-06-30T14:03:15.681Z,29.39
2023-06-30T14:05:47.480Z,29.84
2023-06-30T14:08:14.325Z,29.86
2023-06-30T14:10:40.921Z,29.90
2023-06-30T14:13:07.607Z,29.53
2023-06-30T14:15:34.426Z,29.37
2023-06-30T14:18:01.142Z,29.64
2023-06-30T14:20:28.007Z,29.76
2023-06-30T14:22:54.613Z,29.80
2023-06-30T14:25:23.145Z,29.46
2023-06-30T14:27:50.374Z,29.80
2023-06-30T14:30:17.227Z,29.64
2023-06-30T14:32:44.543Z,28.91
2023-06-30T14:35:11.839Z,29.39
2023-06-30T14:37:38.708Z,29.99
2023-06-30T14:40:09.676Z,29.71
2023-06-30T14:42:36.367Z,29.36
2023-06-30T14:45:04.895Z,28.79
2023-06-30T14:47:31.639Z,28.11
2023-06-30T14:49:58.854Z,27.87
2023-06-30T14:52:26.066Z,27.79
2023-06-30T14:54:52.739Z,27.42
2023-06-30T14:57:19.414Z,27.42
2023-06-30T14:59:46.043Z,27.44
2023-06-30T15:02:12.837Z,27.34
2023-06-30T15:04:39.726Z,27.00
2023-06-30T15:07:06.628Z,27.02
2023-06-30T15:09:33.279Z,27.04
2023-06-30T15:11:59.937Z,27.30
2023-06-30T15:14:29.488Z,27.90
2023-06-30T15:16:56.088Z,28.30
2023-06-30T15:19:22.746Z,28.46
2023-06-30T15:21:53.263Z,28.64
2023-06-30T15:24:19.753Z,28.70
2023-06-30T15:26:46.478Z,28.65
2023-06-30T15:29:13.234Z,28.77
2023-06-30T15:31:40.852Z,28.54
2023-06-30T15:34:07.764Z,28.24
2023-06-30T15:36:34.584Z,28.30
2023-06-30T15:39:02.073Z,28.04
2023-06-30T15:41:28.748Z,28.06
2023-06-30T15:43:55.378Z,28.28
2023-06-30T15:46:22.082Z,28.17
2023-06-30T15:48:48.782Z,28.01
2023-06-30T15:51:15.582Z,27.55
2023-06-30T15:53:42.302Z,27.89
2023-06-30T15:56:09.017Z,28.14
2023-06-30T15:58:35.655Z,28.45
2023-06-30T16:01:02.227Z,28.44
2023-06-30T16:03:31.254Z,28.54
2023-06-30T16:05:58.091Z,27.72
2023-06-30T16:08:24.780Z,27.91
2023-06-30T16:10:51.898Z,27.19
2023-06-30T16:13:18.596Z,27.50
2023-06-30T16:15:45.698Z,27.53
2023-06-30T16:18:12.771Z,27.92
2023-06-30T16:20:39.466Z,27.92
2023-06-30T16:23:06.072Z,27.63
2023-06-30T16:25:32.968Z,27.70
2023-06-30T16:27:59.641Z,27.96
2023-06-30T16:30:31.334Z,27.86
2023-06-30T16:32:58.554Z,27.65
2023-06-30T16:35:26.141Z,27.72
2023-06-30T16:37:53.528Z,27.74
2023-06-30T16:40:20.882Z,27.37
2023-06-30T16:42:48.106Z,26.63
2023-06-30T16:45:14.891Z,26.60
2023-06-30T16:47:43.395Z,26.15
2023-06-30T16:50:11.828Z,26.03
2023-06-30T16:52:39.817Z,25.86
2023-06-30T16:55:07.833Z,25.60
2023-06-30T16:57:34.467Z,25.26
2023-06-30T17:00:06.089Z,25.50
2023-06-30T17:02:34.068Z,25.42
2023-06-30T17:05:00.878Z,25.40
2023-06-30T17:07:27.719Z,25.53
2023-06-30T17:09:54.667Z,25.70
2023-06-30T17:12:22.007Z,25.58
2023-06-30T17:14:48.678Z,24.98
2023-06-30T17:17:15.423Z,24.76
2023-06-30T17:19:42.284Z,24.91
2023-06-30T17:22:09.296Z,24.41
2023-06-30T17:24:35.912Z,24.42
2023-06-30T17:27:02.523Z,24.49
2023-06-30T17:29:29.179Z,23.73
2023-06-30T17:31:55.830Z,23.67
2023-06-30T17:34:22.986Z,23.78
2023-06-30T17:36:59.924Z,23.71
2023-06-30T17:39:26.594Z,23.53
2023-06-30T17:41:53.241Z,23.46
2023-06-30T17:44:20.722Z,23.41
2023-06-30T17:46:47.537Z,23.48
2023-06-30T17:49:26.097Z,23.36
2023-06-30T17:51:53.039Z,23.23
2023-06-30T17:54:21.942Z,23.07
2023-06-30T17:56:49.417Z,23.00
2023-06-30T17:59:17.131Z,22.86
2023-06-30T18:01:47.020Z,22.71
2023-06-30T18:04:15.224Z,22.64
2023-06-30T18:07:13.228Z,22.53
2023-06-30T18:09:45.090Z,22.45
2023-06-30T18:12:12.390Z,22.40
2023-06-30T18:14:42.277Z,22.26
2023-06-30T18:17:09.134Z,22.15
2023-06-30T18:19:36.789Z,22.05
2023-06-30T18:22:03.991Z,22.03
2023-06-30T18:24:30.681Z,21.99
2023-06-30T18:26:57.379Z,21.93
2023-06-30T18:29:24.838Z,21.80
2023-06-30T18:31:53.586Z,21.76
2023-06-30T18:34:22.438Z,21.57
2023-06-30T18:36:49.156Z,21.48
2023-06-30T18:39:16.925Z,21.45
2023-06-30T18:41:44.413Z,21.44
2023-06-30T18:44:13.059Z,21.39
2023-06-30T18:46:39.764Z,21.35
2023-06-30T18:54:49.148Z,20.96
2023-06-30T18:57:15.771Z,20.82
2023-06-30T18:59:44.623Z,20.75
2023-06-30T19:02:11.458Z,20.72
2023-06-30T19:04:38.182Z,20.53
2023-06-30T19:07:05.177Z,20.52
2023-06-30T19:09:31.839Z,20.48
2023-06-30T19:11:59.789Z,20.49
2023-06-30T19:14:26.592Z,20.44
2023-06-30T19:16:53.918Z,20.43
2023-06-30T19:19:22.220Z,20.38
2023-06-30T19:21:48.880Z,20.31
2023-06-30T19:24:16.313Z,20.21
2023-06-30T19:26:43.048Z,20.18
2023-06-30T19:29:09.647Z,20.12
2023-06-30T19:31:37.921Z,20.06
2023-06-30T19:34:04.678Z,19.98
2023-06-30T19:36:33.547Z,19.94
2023-06-30T19:39:00.507Z,19.87
2023-06-30T19:41:28.009Z,19.81
2023-06-30T19:43:55.080Z,19.71
2023-06-30T19:46:21.819Z,19.65
2023-06-30T19:48:48.496Z,19.56
2023-06-30T19:51:15.302Z,19.50
2023-06-30T19:53:42.005Z,19.43
2023-06-30T19:56:14.301Z,19.39
2023-06-30T19:58:44.220Z,19.30
2023-06-30T20:01:10.909Z,19.24
2023-06-30T20:03:38.367Z,19.13
2023-06-30T20:06:05.141Z,19.05
2023-06-30T20:08:31.762Z,18.97
2023-06-30T20:10:58.512Z,18.88
2023-06-30T20:13:25.153Z,18.79
2023-06-30T20:15:51.772Z,18.70
2023-06-30T20:18:18.742Z,18.60
2023-06-30T20:20:46.399Z,18.51
2023-06-30T20:23:13.077Z,18.41
2023-06-30T20:25:39.710Z,18.30
2023-06-30T20:28:06.347Z,18.23
2023-06-30T20:30:32.958Z,18.14
2023-06-30T20:32:59.881Z,18.05
2023-06-30T20:35:26.510Z,17.99
2023-06-30T20:37:53.260Z,17.90
2023-06-30T20:40:19.905Z,17.85
2023-06-30T20:42:46.686Z,17.70
2023-06-30T20:45:13.411Z,17.62
2023-06-30T20:47:40.476Z,17.52
2023-06-30T20:50:09.318Z,17.45
2023-06-30T20:52:36.746Z,17.40
2023-06-30T20:55:03.642Z,17.30
2023-06-30T20:57:30.300Z,17.27
2023-06-30T20:59:56.941Z,17.12
2023-06-30T21:02:23.979Z,17.07
2023-06-30T21:04:50.710Z,17.01
2023-06-30T21:07:18.460Z,16.95
2023-06-30T21:09:45.086Z,16.87
2023-06-30T21:12:11.664Z,16.75
2023-06-30T21:14:38.620Z,16.70
2023-06-30T21:17:05.638Z,16.61
2023-06-30T21:19:32.457Z,16.51
2023-06-30T21:22:03.254Z,16.50
2023-06-30T21:24:30.712Z,16.34
2023-06-30T21:26:58.148Z,16.33
2023-06-30T21:29:24.722Z,16.23
2023-06-30T21:31:51.420Z,16.19
2023-06-30T21:34:18.102Z,16.11
2023-06-30T21:36:44.813Z,16.05
2023-06-30T21:39:11.514Z,15.97
2023-06-30T21:41:41.189Z,15.91
2023-06-30T21:44:08.222Z,15.84
2023-06-30T21:46:35.127Z,15.77
2023-06-30T21:49:01.981Z,15.70
2023-06-30T21:51:28.710Z,15.64
2023-06-30T21:53:57.004Z,15.59
2023-06-30T21:56:23.613Z,15.53
2023-06-30T21:58:51.823Z,15.44
2023-06-30T22:01:22.769Z,15.41
2023-06-30T22:03:52.551Z,15.37
2023-06-30T22:06:19.219Z,15.30
2023-06-30T22:08:45.843Z,15.21
2023-06-30T22:11:12.499Z,15.13
2023-06-30T22:13:39.161Z,15.11
2023-06-30T22:16:06.297Z,15.01
2023-06-30T22:18:33.105Z,14.96
2023-06-30T22:20:59.826Z,14.89
2023-06-30T22:23:26.710Z,14.84
2023-06-30T22:25:53.823Z,14.77
2023-06-30T22:28:20.499Z,14.72
2023-06-30T22:30:49.829Z,14.63
2023-06-30T22:33:16.619Z,14.58
2023-06-30T22:35:43.205Z,14.53
2023-06-30T22:38:10.796Z,14.47
2023-06-30T22:40:37.441Z,14.42
2023-06-30T22:43:04.074Z,14.39
2023-06-30T22:45:30.744Z,14.31
2023-06-30T22:47:57.453Z,14.29
2023-06-30T22:50:24.079Z,14.22
2023-06-30T22:52:50.795Z,14.15
2023-06-30T22:55:17.393Z,14.07
2023-06-30T22:57:44.032Z,14.02
2023-06-30T23:00:11.116Z,14.03
2023-06-30T23:02:37.946Z,14.02
2023-06-30T23:05:05.140Z,13.99
2023-06-30T23:07:31.810Z,13.96
2023-06-30T23:09:58.605Z,13.90
2023-06-30T23:12:25.307Z,13.85
2023-06-30T23:14:52.569Z,13.80
2023-06-30T23:17:25.976Z,13.75
2023-06-30T23:19:53.002Z,13.67
2023-06-30T23:22:20.765Z,13.64
2023-06-30T23:24:48.142Z,13.60
2023-06-30T23:27:15.840Z,13.56
2023-06-30T23:29:45.887Z,13.51
2023-06-30T23:32:16.665Z,13.47
2023-06-30T23:34:44.392Z,13.46
2023-06-30T23:37:13.249Z,13.42
2023-06-30T23:39:40.828Z,13.40
2023-06-30T23:42:08.829Z,13.37
2023-06-30T23:44:36.079Z,13.32
2023-06-30T23:47:05.347Z,13.25
2023-06-30T23:49:32.967Z,13.25
2023-06-30T23:51:59.964Z,13.20
2023-06-30T23:54:26.633Z,13.18
2023-06-30T23:56:53.316Z,13.15
2023-06-30T23:59:19.942Z,13.10
